Time;durP1;ratioP1;P1;durP2;ratioP2;P2;SDS_P1;SDS_P2;PMS_P1;PMS_P2;Temp;Humidity;BMP_temperature;BMP_pressure;BME280_temperature;BME280_humidity;BME280_pressure;Samples;Min_cycle;Max_cycle;Signal;HPM_P1;HPM_P2
2023/04/01 00:01:32;;;;;;;1.00;0.73;;;15.10;53.90;;;;;;5085906;28;45486;-70
2023/04/01 00:03:59;;;;;;;0.95;0.80;;;15.10;53.90;;;;;;5085520;28;47337;-70
2023/04/01 00:06:25;;;;;;;0.65;0.65;;;15.10;53.80;;;;;;5085271;28;45329;-70
2023/04/01 00:08:52;;;;;;;2.05;1.00;;;15.10;53.90;;;;;;5085599;28;45282;-70
2023/04/01 00:11:19;;;;;;;1.30;0.80;;;15.10;53.90;;;;;;5085620;28;45364;-70
2023/04/01 00:13:46;;;;;;;2.67;0.93;;;15.10;53.90;;;;;;5085271;28;46888;-70
2023/04/01 00:16:14;;;;;;;1.05;0.75;;;15.10;53.90;;;;;;5085233;28;45482;-70
2023/04/01 00:18:41;;;;;;;2.10;0.80;;;15.10;53.90;;;;;;5085469;28;45332;-70
2023/04/01 00:21:08;;;;;;;1.02;0.80;;;15.10;53.90;;;;;;5085615;28;45374;-70
2023/04/01 00:23:35;;;;;;;1.77;0.82;;;15.10;53.90;;;;;;5082608;28;46600;-70
2023/04/01 00:26:02;;;;;;;0.80;0.75;;;15.10;53.90;;;;;;5084904;28;45317;-70
2023/04/01 00:28:29;;;;;;;0.75;0.70;;;15.00;53.90;;;;;;5087749;28;45416;-70
2023/04/01 00:30:56;;;;;;;0.68;0.68;;;15.00;54.50;;;;;;5088990;28;45316;-70
2023/04/01 00:33:24;;;;;;;1.20;0.60;;;15.00;53.90;;;;;;5088687;28;45346;-70
2023/04/01 00:35:51;;;;;;;0.50;0.50;;;15.00;54.00;;;;;;5088664;28;45317;-70
2023/04/01 00:38:18;;;;;;;1.42;0.80;;;15.00;53.90;;;;;;5088717;28;45443;-70
2023/04/01 00:40:46;;;;;;;0.90;0.63;;;15.00;54.00;;;;;;5089074;28;45497;-70
2023/04/01 00:43:13;;;;;;;1.55;0.80;;;15.00;54.00;;;;;;5088436;28;46372;-70
2023/04/01 00:45:41;;;;;;;1.00;0.60;;;15.00;54.00;;;;;;5088483;28;45461;-70
2023/04/01 00:48:09;;;;;;;1.05;0.70;;;15.00;53.90;;;;;;5088542;28;45329;-70
2023/04/01 00:50:38;;;;;;;0.95;0.65;;;15.00;54.00;;;;;;5088839;28;45312;-70
2023/04/01 00:53:05;;;;;;;1.88;0.90;;;15.00;53.90;;;;;;5088210;28;45488;-70
2023/04/01 00:55:33;;;;;;;0.75;0.73;;;15.00;54.00;;;;;;5088393;28;45327;-70
2023/04/01 00:58:00;;;;;;;0.60;0.60;;;15.00;53.90;;;;;;5088574;28;45248;-70
2023/04/01 01:00:27;;;;;;;0.63;0.63;;;15.00;54.00;;;;;;5088685;28;45364;-70
2023/04/01 01:02:54;;;;;;;0.82;0.60;;;14.90;53.90;;;;;;5088194;28;47584;-70
2023/04/01 01:05:23;;;;;;;0.98;0.50;;;14.90;54.00;;;;;;5088157;28;45409;-70
2023/04/01 01:07:54;;;;;;;0.70;0.60;;;14.90;54.00;;;;;;5088267;28;45312;-70
2023/04/01 01:10:23;;;;;;;1.45;0.47;;;14.90;54.00;;;;;;5088430;28;45347;-70
2023/04/01 01:12:52;;;;;;;0.63;0.60;;;14.90;54.00;;;;;;5087982;28;46411;-70
2023/04/01 01:15:21;;;;;;;0.68;0.57;;;14.90;54.10;;;;;;5088084;28;45259;-70
2023/04/01 01:17:52;;;;;;;1.13;0.60;;;14.90;54.00;;;;;;5088102;28;45363;-70
2023/04/01 01:20:55;;;;;;;1.05;0.88;;;14.90;54.00;;;;;;5088364;28;45214;-68
2023/04/01 01:23:40;;;;;;;1.85;0.50;;;14.90;54.60;;;;;;5087852;28;46564;-70
2023/04/01 01:26:26;;;;;;;0.45;0.45;;;14.90;54.10;;;;;;5087633;28;45324;-70
2023/04/01 01:28:57;;;;;;;1.55;0.52;;;14.90;54.00;;;;;;5088066;28;45303;-70
2023/04/01 01:31:26;;;;;;;0.68;0.57;;;14.80;54.00;;;;;;5088059;28;45489;-71
2023/04/01 01:34:02;;;;;;;1.98;1.10;;;14.80;54.00;;;;;;5087622;28;46452;-70
2023/04/01 01:36:34;;;;;;;0.60;0.60;;;14.80;54.00;;;;;;5087704;28;45575;-70
2023/04/01 01:39:01;;;;;;;0.65;0.65;;;14.80;54.10;;;;;;5087081;28;45262;-70
2023/04/01 01:41:28;;;;;;;0.75;0.50;;;14.80;54.10;;;;;;5087976;28;45481;-70
2023/04/01 01:43:55;;;;;;;1.17;0.60;;;14.80;54.10;;;;;;5087522;28;46318;-70
2023/04/01 01:46:23;;;;;;;0.50;0.40;;;14.80;54.10;;;;;;5087521;28;45337;-70
2023/04/01 01:48:50;;;;;;;1.02;0.63;;;14.80;54.10;;;;;;5087690;28;45258;-70
2023/04/01 01:51:17;;;;;;;0.85;0.50;;;14.80;54.10;;;;;;5088020;28;45377;-70
2023/04/01 01:53:45;;;;;;;0.50;0.40;;;14.80;54.10;;;;;;5087388;28;45560;-70
2023/04/01 01:56:13;;;;;;;1.75;0.77;;;14.80;54.10;;;;;;5087429;28;45392;-70
2023/04/01 01:58:41;;;;;;;3.33;0.70;;;14.80;54.20;;;;;;5087538;28;45460;-70
2023/04/01 02:01:09;;;;;;;0.57;0.50;;;14.80;54.30;;;;;;5087897;28;45427;-70
2023/04/01 02:03:37;;;;;;;0.40;0.40;;;14.80;54.20;;;;;;5087242;28;46370;-70
2023/04/01 02:06:05;;;;;;;1.58;0.65;;;14.70;54.20;;;;;;5087048;28;45305;-70
2023/04/01 02:08:33;;;;;;;1.08;0.70;;;14.70;54.10;;;;;;5087409;28;45242;-70
2023/04/01 02:11:04;;;;;;;1.13;0.60;;;14.70;54.20;;;;;;5087451;28;45424;-70
2023/04/01 02:13:32;;;;;;;0.93;0.57;;;14.70;54.80;;;;;;5086971;28;45288;-70
2023/04/01 02:16:01;;;;;;;1.08;0.70;;;14.70;54.20;;;;;;5086875;28;45203;-70
2023/04/01 02:18:28;;;;;;;2.47;0.50;;;14.70;54.20;;;;;;5086804;28;45364;-70
2023/04/01 02:20:56;;;;;;;0.90;0.50;;;14.70;54.80;;;;;;5086853;28;45649;-70
2023/04/01 02:23:23;;;;;;;0.68;0.68;;;14.70;54.20;;;;;;5084082;28;46524;-70
2023/04/01 02:25:50;;;;;;;0.77;0.70;;;14.70;54.20;;;;;;5086262;28;45293;-70
2023/04/01 02:28:20;;;;;;;1.15;0.70;;;14.70;54.20;;;;;;5086770;28;45365;-70
2023/04/01 02:30:47;;;;;;;1.17;0.35;;;14.70;54.10;;;;;;5087248;28;45260;-70
2023/04/01 02:33:13;;;;;;;1.30;0.63;;;14.70;54.20;;;;;;5086708;28;46409;-70
2023/04/01 02:35:40;;;;;;;0.85;0.65;;;14.70;54.10;;;;;;5086733;28;45379;-70
2023/04/01 02:38:07;;;;;;;0.47;0.32;;;14.70;54.10;;;;;;5086846;28;45325;-70
2023/04/01 02:40:43;;;;;;;1.80;0.65;;;14.70;54.10;;;;;;5087072;28;45444;-70
2023/04/01 02:43:10;;;;;;;0.95;0.55;;;14.70;54.10;;;;;;5086675;28;45433;-70
2023/04/01 02:45:38;;;;;;;0.70;0.50;;;14.70;54.20;;;;;;5086699;28;45315;-70
2023/04/01 02:48:06;;;;;;;0.50;0.50;;;14.70;54.20;;;;;;5086778;28;45318;-70
2023/04/01 02:50:33;;;;;;;0.95;0.90;;;14.70;54.20;;;;;;5086767;27;45355;-70
2023/04/01 02:52:59;;;;;;;0.63;0.40;;;14.70;54.20;;;;;;5086407;28;46434;-70
2023/04/01 02:55:26;;;;;;;2.20;0.60;;;14.70;54.20;;;;;;5086586;28;45265;-70
2023/04/01 02:57:53;;;;;;;1.40;0.55;;;14.70;54.10;;;;;;5086579;28;45261;-70
2023/04/01 03:00:20;;;;;;;1.20;0.65;;;14.70;54.20;;;;;;5084194;28;45299;-70
2023/04/01 03:02:48;;;;;;;1.85;0.40;;;14.70;54.20;;;;;;5086402;28;46611;-70
2023/04/01 03:05:15;;;;;;;0.65;0.65;;;14.70;54.20;;;;;;5086363;28;45301;-70
2023/04/01 03:07:42;;;;;;;0.52;0.45;;;14.60;54.10;;;;;;5086419;28;45337;-70
2023/04/01 03:10:09;;;;;;;1.60;0.60;;;14.60;54.10;;;;;;5086643;28;45459;-70
2023/04/01 03:12:36;;;;;;;3.15;0.52;;;14.60;54.20;;;;;;5086079;28;46431;-70
2023/04/01 03:15:04;;;;;;;0.50;0.50;;;14.60;54.10;;;;;;5086289;28;45304;-70
2023/04/01 03:17:31;;;;;;;1.00;0.45;;;14.60;54.20;;;;;;5086292;28;45322;-70
2023/04/01 03:19:59;;;;;;;0.50;0.50;;;14.60;54.30;;;;;;5086513;28;45340;-70
2023/04/01 03:22:26;;;;;;;0.88;0.50;;;14.60;54.30;;;;;;5086067;28;45443;-70
2023/04/01 03:24:53;;;;;;;0.95;0.52;;;14.60;54.30;;;;;;5086018;27;45315;-70
2023/04/01 03:27:19;;;;;;;1.83;0.50;;;14.60;54.40;;;;;;5086172;28;45388;-71
2023/04/01 03:29:46;;;;;;;1.23;0.57;;;14.60;54.40;;;;;;5086324;28;45356;-70
2023/04/01 03:32:13;;;;;;;1.75;0.45;;;14.60;54.30;;;;;;5085974;28;46739;-70
2023/04/01 03:34:40;;;;;;;2.67;0.70;;;14.60;54.30;;;;;;5085946;28;45320;-70
2023/04/01 03:37:08;;;;;;;1.17;0.47;;;14.60;54.30;;;;;;5085949;28;45482;-70
2023/04/01 03:39:35;;;;;;;0.98;0.60;;;14.50;54.20;;;;;;5086092;28;45452;-70
2023/04/01 03:42:02;;;;;;;0.43;0.40;;;14.50;54.20;;;;;;5085737;28;46921;-70
2023/04/01 03:44:32;;;;;;;1.65;0.50;;;14.50;54.30;;;;;;5085923;28;45256;-70
2023/04/01 03:46:58;;;;;;;0.43;0.40;;;14.50;54.20;;;;;;5085900;28;45416;-70
2023/04/01 03:49:25;;;;;;;3.75;0.60;;;14.50;54.20;;;;;;5086067;28;45306;-70
2023/04/01 03:51:52;;;;;;;2.17;0.60;;;14.50;54.20;;;;;;5085545;28;46396;-70
2023/04/01 03:54:20;;;;;;;0.65;0.63;;;14.50;54.20;;;;;;5085708;28;45257;-70
2023/04/01 03:56:47;;;;;;;1.45;0.63;;;14.50;54.20;;;;;;5085718;28;45297;-70
2023/04/01 03:59:14;;;;;;;0.60;0.60;;;14.50;54.20;;;;;;5085844;28;45421;-70
2023/04/01 04:01:41;;;;;;;1.35;0.40;;;14.50;54.20;;;;;;5085513;28;46733;-70
2023/04/01 04:04:08;;;;;;;1.42;0.70;;;14.50;54.30;;;;;;5089051;28;45262;-70
2023/04/01 04:06:35;;;;;;;0.30;0.30;;;14.50;54.30;;;;;;5089165;28;45278;-70
2023/04/01 04:09:02;;;;;;;0.60;0.40;;;14.50;54.30;;;;;;5089451;28;45425;-70
2023/04/01 04:11:31;;;;;;;2.17;0.70;;;14.50;54.30;;;;;;5089065;28;45369;-70
2023/04/01 04:13:58;;;;;;;1.05;0.68;;;14.50;54.30;;;;;;5088952;28;45315;-70
2023/04/01 04:16:24;;;;;;;0.65;0.40;;;14.50;54.30;;;;;;5089069;28;45274;-70
2023/04/01 04:18:51;;;;;;;2.17;0.40;;;14.50;54.30;;;;;;5089350;28;45436;-70
2023/04/01 04:21:18;;;;;;;0.60;0.30;;;14.40;54.30;;;;;;5088928;28;46562;-70
2023/04/01 04:23:45;;;;;;;0.43;0.32;;;14.40;54.30;;;;;;5088979;28;45328;-70
2023/04/01 04:26:13;;;;;;;1.60;0.60;;;14.40;54.30;;;;;;5088941;28;45344;-70
2023/04/01 04:28:41;;;;;;;0.77;0.55;;;14.40;54.30;;;;;;5089039;28;45480;-70
2023/04/01 04:31:08;;;;;;;1.40;0.47;;;14.40;54.30;;;;;;5088687;28;46625;-70
2023/04/01 04:33:35;;;;;;;0.43;0.43;;;14.40;54.30;;;;;;5088704;28;45340;-70
2023/04/01 04:36:02;;;;;;;1.85;0.40;;;14.40;54.30;;;;;;5088845;28;45349;-70
2023/04/01 04:38:29;;;;;;;0.98;0.50;;;14.40;54.30;;;;;;5089012;28;45249;-70
2023/04/01 04:40:56;;;;;;;3.53;0.50;;;14.40;54.40;;;;;;5088585;28;46658;-70
2023/04/01 04:43:23;;;;;;;0.90;0.38;;;14.40;54.30;;;;;;5089051;28;45459;-70
2023/04/01 04:45:51;;;;;;;0.98;0.50;;;14.40;54.30;;;;;;5089471;28;45332;-70
2023/04/01 04:48:20;;;;;;;0.60;0.40;;;14.40;54.40;;;;;;5089009;28;45250;-70
2023/04/01 04:50:47;;;;;;;0.93;0.45;;;14.40;54.30;;;;;;5085909;28;45478;-70
2023/04/01 04:53:14;;;;;;;0.52;0.40;;;14.30;54.20;;;;;;5088355;28;45284;-70
2023/04/01 04:55:44;;;;;;;0.98;0.60;;;14.30;54.20;;;;;;5088480;28;45320;-70
2023/04/01 04:58:11;;;;;;;1.25;0.43;;;14.30;54.30;;;;;;5088578;28;45257;-70
2023/04/01 05:00:37;;;;;;;0.43;0.40;;;14.30;54.30;;;;;;5088270;28;46415;-70
2023/04/01 05:03:06;;;;;;;0.88;0.60;;;14.30;54.30;;;;;;5088403;28;45365;-70
2023/04/01 05:05:32;;;;;;;0.75;0.40;;;14.30;54.30;;;;;;5088330;28;45407;-70
2023/04/01 05:07:59;;;;;;;1.48;0.40;;;14.30;54.20;;;;;;5088473;28;45424;-70
2023/04/01 05:10:26;;;;;;;0.80;0.30;;;14.30;54.20;;;;;;5088159;28;45335;-70
2023/04/01 05:12:53;;;;;;;0.82;0.50;;;14.30;54.30;;;;;;5088024;28;45309;-70
2023/04/01 05:15:20;;;;;;;1.02;0.80;;;14.30;54.20;;;;;;5087022;28;45378;-70
2023/04/01 05:17:47;;;;;;;0.28;0.28;;;14.30;54.20;;;;;;5088276;28;45274;-70
2023/04/01 05:20:15;;;;;;;0.40;0.40;;;14.30;54.30;;;;;;5087975;28;46579;-69
2023/04/01 05:22:42;;;;;;;0.43;0.40;;;14.30;54.20;;;;;;5088016;28;45384;-70
2023/04/01 05:25:09;;;;;;;0.40;0.30;;;14.30;54.20;;;;;;5087790;28;45439;-70
2023/04/01 05:27:36;;;;;;;2.28;0.50;;;14.30;54.30;;;;;;5088136;28;45356;-70
2023/04/01 05:30:03;;;;;;;0.88;0.50;;;14.30;54.20;;;;;;5087821;28;46345;-70
2023/04/01 05:32:31;;;;;;;1.20;0.60;;;14.30;54.20;;;;;;5087731;28;45277;-70
2023/04/01 05:34:58;;;;;;;1.45;0.40;;;14.30;54.30;;;;;;5087960;28;45334;-70
2023/04/01 05:37:26;;;;;;;0.32;0.32;;;14.30;54.30;;;;;;5087900;28;44796;-70
2023/04/01 05:39:53;;;;;;;0.70;0.43;;;14.30;54.30;;;;;;5087739;28;45262;-70
2023/04/01 05:42:20;;;;;;;0.98;0.57;;;14.30;54.30;;;;;;5087675;28;45277;-70
2023/04/01 05:44:47;;;;;;;0.88;0.40;;;14.30;54.30;;;;;;5087845;28;45380;-70
2023/04/01 05:47:14;;;;;;;1.45;0.38;;;14.30;54.30;;;;;;5087788;28;45467;-70
2023/04/01 05:49:41;;;;;;;1.02;0.43;;;14.30;54.30;;;;;;5087366;28;46685;-70
2023/04/01 05:52:08;;;;;;;0.98;0.32;;;14.30;54.30;;;;;;5087556;28;45265;-70
2023/04/01 05:54:36;;;;;;;1.10;0.38;;;14.30;54.20;;;;;;5087562;28;45250;-70
2023/04/01 05:57:03;;;;;;;1.25;0.47;;;14.30;54.20;;;;;;5087700;28;45365;-70
2023/04/01 05:59:31;;;;;;;0.90;0.50;;;14.30;54.20;;;;;;5087224;28;46425;-70
2023/04/01 06:01:57;;;;;;;2.03;0.40;;;14.30;54.20;;;;;;5087257;28;45407;-70
2023/04/01 06:04:24;;;;;;;0.28;0.28;;;14.30;54.10;;;;;;5087539;28;45278;-70
2023/04/01 06:06:52;;;;;;;0.82;0.60;;;14.30;54.20;;;;;;5087541;28;45191;-70
2023/04/01 06:09:20;;;;;;;1.20;0.60;;;14.30;54.20;;;;;;5087121;28;46980;-70
2023/04/01 06:12:36;;;;;;;1.48;0.88;;;14.30;54.20;;;;;;5087372;28;45371;-70
2023/04/01 06:15:10;;;;;;;1.15;0.47;;;14.30;54.20;;;;;;5027668;28;45403;-70
2023/04/01 06:17:46;;;;;;;1.23;0.30;;;14.30;54.20;;;;;;5087472;28;45242;-70
2023/04/01 06:20:13;;;;;;;0.60;0.60;;;14.30;54.20;;;;;;5087086;28;47369;-70
2023/04/01 06:22:57;;;;;;;1.17;0.30;;;14.30;54.20;;;;;;5087102;28;45365;-70
2023/04/01 06:25:55;;;;;;;2.40;0.63;;;14.30;54.20;;;;;;5086417;27;45319;-70
2023/04/01 06:28:57;;;;;;;0.52;0.40;;;14.30;54.20;;;;;;5067246;28;45462;-70
2023/04/01 06:31:38;;;;;;;1.35;0.50;;;14.30;54.20;;;;;;5086351;28;45474;-70
2023/04/01 06:34:22;;;;;;;0.68;0.38;;;14.20;54.10;;;;;;5086768;28;45395;-69
2023/04/01 06:37:25;;;;;;;1.35;0.30;;;14.30;54.20;;;;;;5086857;28;45293;-69
2023/04/01 06:40:03;;;;;;;0.40;0.30;;;14.30;54.30;;;;;;5069973;28;45584;-70
2023/04/01 06:42:44;;;;;;;1.88;0.50;;;14.30;54.20;;;;;;5086711;28;46676;-70
2023/04/01 06:45:17;;;;;;;1.10;0.40;;;14.30;54.30;;;;;;5086771;28;45631;-70
2023/04/01 06:47:54;;;;;;;0.88;0.68;;;14.30;54.20;;;;;;5086726;28;45323;-70
2023/04/01 06:50:25;;;;;;;1.88;0.57;;;14.30;54.20;;;;;;5086986;28;45332;-70
2023/04/01 06:52:55;;;;;;;1.42;0.40;;;14.30;54.30;;;;;;5086436;28;45447;-69
2023/04/01 06:55:27;;;;;;;0.73;0.22;;;14.30;54.30;;;;;;5086783;28;45733;-70
2023/04/01 06:57:54;;;;;;;1.40;0.50;;;14.30;54.20;;;;;;5086330;28;45250;-69
2023/04/01 07:00:26;;;;;;;0.43;0.40;;;14.30;54.20;;;;;;5086690;28;45321;-70
2023/04/01 07:02:58;;;;;;;0.65;0.50;;;14.30;54.20;;;;;;5086235;28;45456;-70
2023/04/01 07:05:25;;;;;;;1.20;0.60;;;14.30;54.20;;;;;;5086413;28;45352;-71
2023/04/01 07:07:55;;;;;;;0.80;0.38;;;14.30;54.30;;;;;;5086320;28;45360;-70
2023/04/01 07:10:26;;;;;;;1.55;0.70;;;14.30;54.30;;;;;;5086643;28;45396;-70
2023/04/01 07:12:55;;;;;;;0.32;0.32;;;14.30;54.20;;;;;;5086081;28;45561;-69
2023/04/01 07:15:23;;;;;;;0.57;0.40;;;14.30;54.20;;;;;;5086227;28;45258;-70
2023/04/01 07:17:53;;;;;;;0.95;0.47;;;14.30;54.20;;;;;;5086202;28;45313;-70
2023/04/01 07:20:23;;;;;;;1.45;0.43;;;14.30;54.20;;;;;;5086563;28;45262;-70
2023/04/01 07:22:50;;;;;;;0.32;0.28;;;14.30;54.20;;;;;;5086023;28;45353;-70
2023/04/01 07:25:18;;;;;;;0.60;0.30;;;14.30;54.10;;;;;;5086037;28;45305;-70
2023/04/01 07:27:45;;;;;;;0.50;0.32;;;14.30;54.10;;;;;;5086101;28;45341;-70
2023/04/01 07:30:15;;;;;;;1.05;0.52;;;14.30;54.10;;;;;;5086601;28;45118;-70
2023/04/01 07:32:43;;;;;;;1.50;0.40;;;14.30;54.10;;;;;;5085919;28;45350;-70
2023/04/01 07:35:18;;;;;;;0.40;0.40;;;14.30;54.00;;;;;;5085768;28;45335;-70
2023/04/01 07:37:53;;;;;;;1.35;0.30;;;14.30;54.00;;;;;;5084918;27;45304;-70
2023/04/01 07:40:25;;;;;;;0.55;0.40;;;14.40;54.10;;;;;;5086143;28;45470;-69
2023/04/01 07:43:04;;;;;;;1.05;0.30;;;14.30;54.60;;;;;;5085684;28;46419;-70
2023/04/01 07:45:33;;;;;;;0.90;0.50;;;14.30;54.00;;;;;;5085687;28;45334;-70
2023/04/01 07:48:09;;;;;;;0.30;0.20;;;14.30;54.00;;;;;;5085772;28;45399;-70
2023/04/01 07:50:38;;;;;;;0.20;0.10;;;14.30;54.00;;;;;;5085868;28;45281;-69
2023/04/01 07:53:10;;;;;;;0.25;0.20;;;14.30;54.00;;;;;;5085500;28;45498;-70
2023/04/01 07:55:40;;;;;;;0.70;0.30;;;14.30;54.00;;;;;;5085670;28;45277;-70
2023/04/01 07:58:10;;;;;;;0.95;0.30;;;14.30;54.00;;;;;;5085706;28;45275;-69
2023/04/01 08:00:40;;;;;;;0.32;0.20;;;14.30;54.00;;;;;;5085870;28;45440;-69
2023/04/01 08:03:28;;;;;;;0.20;0.20;;;14.40;54.00;;;;;;5085495;28;47053;-70
2023/04/01 08:05:56;;;;;;;0.82;0.35;;;14.30;54.10;;;;;;5085495;28;45401;-70
2023/04/01 08:08:31;;;;;;;0.55;0.32;;;14.40;54.00;;;;;;5085642;28;45309;-70
2023/04/01 08:11:00;;;;;;;1.00;0.20;;;14.40;53.90;;;;;;5085808;28;45338;-70
2023/04/01 08:13:32;;;;;;;1.98;0.75;;;14.40;54.00;;;;;;5085258;28;45306;-70
2023/04/01 08:16:04;;;;;;;0.40;0.40;;;14.40;54.10;;;;;;5085314;28;45323;-70
2023/04/01 08:18:34;;;;;;;0.47;0.47;;;14.30;54.00;;;;;;5085548;28;45327;-70
2023/04/01 08:21:01;;;;;;;0.88;0.45;;;14.40;54.10;;;;;;5085699;28;45112;-70
2023/04/01 08:23:31;;;;;;;0.28;0.28;;;14.30;54.10;;;;;;5085188;28;45337;-70
2023/04/01 08:25:59;;;;;;;0.88;0.30;;;14.30;53.90;;;;;;5085257;28;45371;-70
2023/04/01 08:28:28;;;;;;;0.60;0.30;;;14.40;54.10;;;;;;5085473;28;45265;-70
2023/04/01 08:30:57;;;;;;;0.30;0.30;;;14.30;54.10;;;;;;5085800;28;45444;-70
2023/04/01 08:33:26;;;;;;;1.45;0.40;;;14.30;54.00;;;;;;5085169;28;46403;-70
2023/04/01 08:35:56;;;;;;;0.40;0.30;;;14.40;54.00;;;;;;5085181;28;45332;-70
2023/04/01 08:38:24;;;;;;;0.22;0.20;;;14.40;54.00;;;;;;5085461;28;45396;-70
2023/04/01 08:41:08;;;;;;;1.27;0.30;;;14.40;54.30;;;;;;5085371;28;45326;-70
2023/04/01 08:43:56;;;;;;;0.98;0.30;;;14.30;54.10;;;;;;5084955;28;45611;-70
2023/04/01 08:46:51;;;;;;;0.88;0.50;;;14.40;54.10;;;;;;5085036;28;45260;-69
2023/04/01 08:49:26;;;;;;;0.20;0.20;;;14.40;54.00;;;;;;5082860;28;45369;-70
2023/04/01 08:52:23;;;;;;;3.10;0.52;;;14.40;53.90;;;;;;5088822;28;45550;-70
2023/04/01 08:55:22;;;;;;;0.20;0.20;;;14.40;53.80;;;;;;5052996;28;46440;-70
2023/04/01 08:57:57;;;;;;;0.55;0.47;;;14.40;53.90;;;;;;5088294;28;45346;-69
2023/04/01 09:00:27;;;;;;;0.40;0.40;;;14.40;54.30;;;;;;5088699;28;45297;-69
2023/04/01 09:03:15;;;;;;;1.00;0.57;;;14.40;53.90;;;;;;5088583;28;45400;-70
2023/04/01 09:05:59;;;;;;;0.35;0.20;;;14.50;54.50;;;;;;5088200;28;45387;-70
2023/04/01 09:08:32;;;;;;;0.55;0.20;;;14.50;53.90;;;;;;5088264;28;45363;-70
2023/04/01 09:11:17;;;;;;;0.43;0.30;;;14.40;54.10;;;;;;5088326;28;45412;-69
2023/04/01 09:14:00;;;;;;;0.90;0.30;;;14.50;53.80;;;;;;5088403;28;45386;-70
2023/04/01 09:16:33;;;;;;;1.75;0.40;;;14.50;53.80;;;;;;5087889;28;46399;-70
2023/04/01 09:19:12;;;;;;;0.60;0.38;;;14.50;53.90;;;;;;5087950;28;45285;-70
2023/04/01 09:21:59;;;;;;;0.68;0.35;;;14.50;53.80;;;;;;5088113;28;45238;-70
2023/04/01 09:25:04;;;;;;;0.93;0.47;;;14.50;53.80;;;;;;5088302;28;45412;-70
2023/04/01 09:27:31;;;;;;;0.35;0.17;;;14.50;53.90;;;;;;5030828;27;45541;-70
2023/04/01 09:30:18;;;;;;;0.80;0.38;;;14.50;53.90;;;;;;5091701;27;45482;-69
2023/04/01 09:32:59;;;;;;;0.30;0.30;;;14.50;53.80;;;;;;5088061;28;45330;-70
2023/04/01 09:35:28;;;;;;;0.65;0.40;;;14.50;53.90;;;;;;5087926;28;45323;-70
2023/04/01 09:38:00;;;;;;;0.43;0.43;;;14.50;53.70;;;;;;5087597;28;46388;-70
2023/04/01 09:40:35;;;;;;;0.38;0.30;;;14.50;53.70;;;;;;5087725;28;45340;-70
2023/04/01 09:43:24;;;;;;;1.13;0.40;;;14.50;53.80;;;;;;5087946;28;45371;-70
2023/04/01 09:46:03;;;;;;;0.20;0.20;;;14.50;53.70;;;;;;5087909;28;45359;-70
2023/04/01 09:48:49;;;;;;;0.32;0.32;;;14.50;53.80;;;;;;5087461;28;46484;-70
2023/04/01 09:51:24;;;;;;;0.30;0.30;;;14.50;53.90;;;;;;5087349;28;45333;-70
2023/04/01 09:54:02;;;;;;;0.95;0.45;;;14.50;53.80;;;;;;5087654;28;45487;-70
2023/04/01 09:57:00;;;;;;;0.30;0.30;;;14.50;53.70;;;;;;5087746;28;45368;-70
2023/04/01 09:59:59;;;;;;;0.43;0.40;;;14.50;53.70;;;;;;5085856;28;46686;-70
2023/04/01 10:02:45;;;;;;;2.05;0.40;;;14.50;53.80;;;;;;5087344;28;45427;-70
2023/04/01 10:05:54;;;;;;;0.38;0.35;;;14.50;53.70;;;;;;5087639;28;45322;-70
2023/04/01 10:08:51;;;;;;;1.63;0.50;;;14.50;53.80;;;;;;5087504;28;45360;-70
2023/04/01 10:11:47;;;;;;;0.32;0.30;;;14.50;53.70;;;;;;5087180;28;47366;-70
2023/04/01 10:14:27;;;;;;;1.73;0.50;;;14.50;53.80;;;;;;5086041;28;45529;-70
2023/04/01 10:17:09;;;;;;;0.30;0.30;;;14.50;53.70;;;;;;5087221;28;45395;-70
2023/04/01 10:20:08;;;;;;;1.40;0.50;;;14.50;53.70;;;;;;5087428;28;45327;-70
2023/04/01 10:23:08;;;;;;;0.30;0.30;;;14.50;53.70;;;;;;5043539;28;45353;-70
2023/04/01 10:26:14;;;;;;;1.73;0.43;;;14.50;53.90;;;;;;5087067;28;45602;-70
2023/04/01 10:29:04;;;;;;;0.90;0.30;;;14.50;53.90;;;;;;5044469;28;45674;-70
2023/04/01 10:32:02;;;;;;;0.30;0.30;;;14.50;53.90;;;;;;5081730;28;45370;-69
2023/04/01 10:34:59;;;;;;;0.60;0.60;;;14.50;54.10;;;;;;5086704;28;46667;-70
2023/04/01 10:37:56;;;;;;;0.50;0.50;;;14.50;54.30;;;;;;5033211;28;45335;-70
2023/04/01 10:41:05;;;;;;;0.50;0.50;;;14.50;54.10;;;;;;5086966;28;45394;-70
2023/04/01 10:43:55;;;;;;;1.30;0.45;;;14.50;54.00;;;;;;4993215;28;45601;-70
2023/04/01 10:47:07;;;;;;;0.43;0.32;;;14.50;54.10;;;;;;5086312;28;45510;-70
2023/04/01 10:49:51;;;;;;;0.82;0.30;;;14.50;53.90;;;;;;5040237;28;45253;-70
2023/04/01 10:52:47;;;;;;;1.02;0.40;;;14.60;54.10;;;;;;5086719;28;45265;-70
2023/04/01 10:55:27;;;;;;;0.60;0.32;;;14.60;53.90;;;;;;5086901;28;45340;-70
2023/04/01 10:58:14;;;;;;;0.32;0.32;;;14.60;53.90;;;;;;5086222;28;46723;-70
2023/04/01 11:01:12;;;;;;;0.28;0.22;;;14.60;53.90;;;;;;5086497;28;45388;-70
2023/04/01 11:04:17;;;;;;;1.00;0.55;;;14.60;53.90;;;;;;5086777;28;45403;-70
2023/04/01 11:07:32;;;;;;;1.38;0.30;;;14.60;54.00;;;;;;5086546;28;45539;-70
2023/04/01 11:10:35;;;;;;;0.30;0.30;;;14.60;54.00;;;;;;5035003;28;46472;-69
2023/04/01 11:13:16;;;;;;;0.30;0.20;;;14.60;53.90;;;;;;5041761;28;45447;-69
2023/04/01 11:16:02;;;;;;;0.63;0.30;;;14.60;53.90;;;;;;5086145;28;45400;-69
2023/04/01 11:18:56;;;;;;;0.95;0.32;;;14.60;54.10;;;;;;5086387;28;45379;-69
2023/04/01 11:21:40;;;;;;;0.57;0.28;;;14.60;54.10;;;;;;5085984;28;45475;-69
2023/04/01 11:24:32;;;;;;;0.35;0.32;;;14.60;54.20;;;;;;5086068;28;45218;-70
2023/04/01 11:27:05;;;;;;;0.52;0.25;;;14.60;54.20;;;;;;5039907;28;45556;-69
2023/04/01 11:29:51;;;;;;;0.20;0.20;;;14.60;54.20;;;;;;5086275;28;45378;-70
2023/04/01 11:32:30;;;;;;;0.25;0.20;;;14.70;54.30;;;;;;5085914;28;45265;-69
2023/04/01 11:35:25;;;;;;;0.38;0.30;;;14.70;54.70;;;;;;5086033;28;45289;-72
2023/04/01 11:37:55;;;;;;;0.20;0.20;;;14.70;54.60;;;;;;5040558;28;45470;-72
2023/04/01 11:40:24;;;;;;;1.77;0.43;;;14.80;54.40;;;;;;5086281;28;45449;-69
2023/04/01 11:42:54;;;;;;;0.63;0.40;;;14.80;54.20;;;;;;5085703;28;46869;-75
2023/04/01 11:45:29;;;;;;;1.55;0.63;;;14.90;54.10;;;;;;5085854;28;45318;-70
2023/04/01 11:48:16;;;;;;;0.40;0.40;;;14.90;54.30;;;;;;5086018;28;45534;-69
2023/04/01 11:51:09;;;;;;;3.55;0.80;;;15.00;54.20;;;;;;5087164;28;45262;-77
2023/04/01 11:53:42;;;;;;;0.77;0.52;;;15.00;54.10;;;;;;5089740;28;45426;-75
2023/04/01 11:56:18;;;;;;;0.47;0.38;;;15.10;53.90;;;;;;5084093;28;45383;-72
2023/04/01 11:59:25;;;;;;;0.20;0.20;;;15.10;53.90;;;;;;5084333;28;45306;-73
2023/04/01 12:01:57;;;;;;;1.35;0.40;;;15.20;53.80;;;;;;5058875;28;45471;-73
2023/04/01 12:05:00;;;;;;;0.30;0.30;;;15.20;53.70;;;;;;5085428;28;46740;-72
2023/04/01 12:07:54;;;;;;;0.28;0.28;;;15.30;53.60;;;;;;5082417;28;45488;-74
2023/04/01 12:10:22;;;;;;;4.68;0.40;;;15.30;53.50;;;;;;5081800;28;45341;-73
2023/04/01 12:12:53;;;;;;;1.70;0.32;;;15.40;53.40;;;;;;5085158;28;45407;-70
2023/04/01 12:15:24;;;;;;;6.90;0.68;;;15.40;53.40;;;;;;5085264;28;46422;-70
2023/04/01 12:17:53;;;;;;;5.50;0.63;;;15.40;53.60;;;;;;5085227;28;45387;-70
2023/04/01 12:20:38;;;;;;;3.58;3.17;;;15.40;53.40;;;;;;5094186;27;45471;-70
2023/04/01 12:23:12;;;;;;;3.33;2.10;;;15.40;53.40;;;;;;5089064;27;45648;-70
2023/04/01 12:25:58;;;;;;;1.70;1.60;;;15.40;53.30;;;;;;5090659;27;46737;-71
2023/04/01 12:28:26;;;;;;;3.20;2.25;;;15.40;53.30;;;;;;5092063;27;45313;-70
2023/04/01 12:31:02;;;;;;;2.80;2.20;;;15.40;53.20;;;;;;5092440;27;45333;-71
2023/04/01 12:33:49;;;;;;;2.40;1.83;;;15.40;53.30;;;;;;5082878;27;45331;-71
2023/04/01 12:36:23;;;;;;;4.60;1.88;;;15.30;53.30;;;;;;5096401;27;46797;-70
2023/04/01 12:39:12;;;;;;;2.70;1.90;;;15.30;53.40;;;;;;5092363;27;45331;-70
2023/04/01 12:41:41;;;;;;;1.83;1.70;;;15.30;53.60;;;;;;5088904;28;45330;-71
2023/04/01 12:44:17;;;;;;;4.10;1.80;;;15.30;53.60;;;;;;5087943;27;45558;-70
2023/04/01 12:47:00;;;;;;;4.00;1.85;;;15.30;53.60;;;;;;5087672;28;45321;-70
2023/04/01 12:49:35;;;;;;;2.00;1.80;;;15.30;53.60;;;;;;5087555;28;45355;-70
2023/04/01 12:52:11;;;;;;;2.83;1.60;;;15.30;53.60;;;;;;5088617;27;45443;-70
2023/04/01 12:55:23;;;;;;;2.60;1.67;;;15.30;53.70;;;;;;5109350;27;45427;-71
2023/04/01 12:57:58;;;;;;;1.58;1.48;;;15.20;53.60;;;;;;5086978;27;46438;-70
2023/04/01 13:00:31;;;;;;;4.35;1.45;;;15.30;53.70;;;;;;5099607;27;45246;-71
2023/04/01 13:03:07;;;;;;;2.25;2.05;;;15.20;53.60;;;;;;5108935;27;45276;-70
2023/04/01 13:05:43;;;;;;;2.00;1.60;;;15.20;53.70;;;;;;5109045;27;45338;-70
2023/04/01 13:08:23;;;;;;;1.83;1.70;;;15.20;53.60;;;;;;5097653;27;45309;-71
2023/04/01 13:10:57;;;;;;;2.00;1.40;;;15.20;53.70;;;;;;5104001;27;45428;-71
2023/04/01 13:13:33;;;;;;;2.17;1.70;;;15.20;53.70;;;;;;5108888;27;45373;-71
2023/04/01 13:16:01;;;;;;;2.03;1.60;;;15.20;53.70;;;;;;5108769;27;45351;-71
2023/04/01 13:18:33;;;;;;;1.38;1.27;;;15.20;53.70;;;;;;5096737;27;46694;-71
2023/04/01 13:21:06;;;;;;;3.35;1.45;;;15.20;53.70;;;;;;5095577;27;45485;-71
2023/04/01 13:23:38;;;;;;;1.48;1.33;;;15.20;53.70;;;;;;5088678;27;45617;-71
2023/04/01 13:26:14;;;;;;;2.25;1.73;;;15.20;54.30;;;;;;5102887;27;45594;-71